Malaysia Virtual Airlines Airport Information Service

Sepang/KL International Airport

ICAO: WMKK Country: Malaysia
Latitude: 2.74558 Longitude: 101.71
Latest Arrival : MH791 (VTSP-WMKK) Latest Departure : MH1276 (WMKK-WMKD)


WX CaptureLIVE
Data provided by noaa.gov | Fetched at 17:14:12

METAR : WMKK 261630Z VRB01KT 9999 FEW030 27/24 Q1010 NOSIG

TAF : WMKK 261100Z 2612/2718 16005KT 9999 FEW030 TEMPO 2621/2701 24012KT 4000 TSRA FEW017CB SCT022


Runway Data for WMKK
Data provided by openaviationdata.com

Runway ID Mag Var Hdg Length Elevation Surface ILS Freq ILS Id ILS Slope
14L 0 146° 13575 ft 70 ft Concrete 108.5 IEL 3
14R 0 146° 13353 ft 70 ft Concrete 110.7 IWR 3
32L 0 326° 13353 ft 70 ft Concrete 111.9 IWL 3
32R 0 326° 13575 ft 70 ft Concrete 109.1 IER 3

Sepang/KL International Airport, Malaysia
Use only for reference purposes



Not for navigational purposes.